createdAt,value
2023-05-09T00:00:38.235Z,65.03
2023-05-09T00:03:07.987Z,65.17
2023-05-09T00:05:36.363Z,65.27
2023-05-09T00:08:04.575Z,65.41
2023-05-09T00:10:33.248Z,65.50
2023-05-09T00:13:02.751Z,65.59
2023-05-09T00:15:32.953Z,65.77
2023-05-09T00:18:03.521Z,65.79
2023-05-09T00:20:34.449Z,65.90
2023-05-09T00:23:03.215Z,65.90
2023-05-09T00:25:32.376Z,66.05
2023-05-09T00:28:01.421Z,66.17
2023-05-09T00:30:29.604Z,66.06
2023-05-09T00:33:01.582Z,66.08
2023-05-09T00:35:31.347Z,66.12
2023-05-09T00:38:00.115Z,66.13
2023-05-09T00:40:28.283Z,65.95
2023-05-09T00:42:58.714Z,66.04
2023-05-09T00:45:27.724Z,65.98
2023-05-09T00:47:57.436Z,65.93
2023-05-09T00:50:28.636Z,65.96
2023-05-09T00:52:58.382Z,65.98
2023-05-09T00:55:29.111Z,66.14
2023-05-09T00:57:57.393Z,65.93
2023-05-09T01:00:25.914Z,65.91
2023-05-09T01:02:55.999Z,65.94
2023-05-09T01:05:29.729Z,65.89
2023-05-09T01:08:06.821Z,65.90
2023-05-09T01:10:41.399Z,65.88
2023-05-09T01:13:16.850Z,65.89
2023-05-09T01:15:48.338Z,65.74
2023-05-09T01:18:19.405Z,65.78
2023-05-09T01:20:54.880Z,65.85
2023-05-09T01:23:47.412Z,65.55
2023-05-09T01:26:24.372Z,65.52
2023-05-09T01:29:12.275Z,65.36
2023-05-09T01:31:42.873Z,65.28
2023-05-09T01:34:12.795Z,65.29
2023-05-09T01:36:42.149Z,65.20
2023-05-09T01:39:13.880Z,65.31
2023-05-09T01:41:42.598Z,65.29
2023-05-09T01:44:13.156Z,65.28
2023-05-09T01:46:42.074Z,65.29
2023-05-09T01:49:12.024Z,65.27
2023-05-09T01:51:43.916Z,65.36
2023-05-09T01:54:12.973Z,65.16
2023-05-09T01:56:43.428Z,65.27
2023-05-09T01:59:16.158Z,65.21
2023-05-09T02:01:44.877Z,65.17
2023-05-09T02:04:16.210Z,65.28
2023-05-09T02:06:44.783Z,65.24
2023-05-09T02:09:13.984Z,65.07
2023-05-09T02:11:42.673Z,65.05
2023-05-09T02:14:11.436Z,64.91
2023-05-09T02:16:42.194Z,65.05
2023-05-09T02:19:10.982Z,64.91
2023-05-09T02:21:42.103Z,64.80
2023-05-09T02:24:10.407Z,64.81
2023-05-09T02:26:40.748Z,64.84
2023-05-09T02:29:09.332Z,65.09
2023-05-09T02:31:38.357Z,64.92
2023-05-09T02:34:13.039Z,65.02
2023-05-09T02:36:43.583Z,65.14
2023-05-09T02:39:12.851Z,64.97
2023-05-09T02:41:42.063Z,64.95
2023-05-09T02:44:10.143Z,65.25
2023-05-09T02:46:43.987Z,65.37
2023-05-09T02:49:26.851Z,65.50
2023-05-09T02:52:00.048Z,65.74
2023-05-09T02:54:28.531Z,65.58
2023-05-09T02:56:57.432Z,65.57
2023-05-09T02:59:27.486Z,66.60
2023-05-09T03:01:55.897Z,69.20
2023-05-09T03:04:26.354Z,66.71
2023-05-09T03:06:55.527Z,66.17
2023-05-09T03:09:23.779Z,66.39
2023-05-09T03:11:52.178Z,66.14
2023-05-09T03:14:21.985Z,66.22
2023-05-09T03:16:54.404Z,66.54
2023-05-09T03:19:22.425Z,67.44
2023-05-09T03:21:55.259Z,66.84
2023-05-09T03:24:24.139Z,66.78
2023-05-09T03:26:53.258Z,67.98
2023-05-09T03:29:22.230Z,67.26
2023-05-09T03:31:52.086Z,67.07
2023-05-09T03:34:20.309Z,67.54
2023-05-09T03:36:48.414Z,66.50
2023-05-09T03:39:18.110Z,66.22
2023-05-09T03:41:46.788Z,66.41
2023-05-09T03:44:16.964Z,66.63
2023-05-09T03:46:57.499Z,66.72
2023-05-09T03:49:25.642Z,66.19
2023-05-09T03:51:58.038Z,65.60
2023-05-09T03:54:29.701Z,65.19
2023-05-09T03:56:59.099Z,64.81
2023-05-09T03:59:27.715Z,64.25
2023-05-09T04:01:58.625Z,64.02
2023-05-09T04:04:27.758Z,63.45
2023-05-09T04:06:56.594Z,63.03
2023-05-09T04:09:26.260Z,62.56
2023-05-09T04:11:56.262Z,62.15
2023-05-09T04:14:26.277Z,61.86
2023-05-09T04:16:55.226Z,61.17
2023-05-09T04:19:23.657Z,60.66
2023-05-09T04:21:53.589Z,60.45
2023-05-09T04:24:22.243Z,59.72
2023-05-09T04:26:59.076Z,59.55
2023-05-09T04:29:29.082Z,58.22
2023-05-09T04:31:58.516Z,57.98
2023-05-09T04:34:27.775Z,57.16
2023-05-09T04:36:57.252Z,57.15
2023-05-09T04:39:25.762Z,56.43
2023-05-09T04:41:57.089Z,55.80
2023-05-09T04:44:25.352Z,55.03
2023-05-09T04:46:55.239Z,54.58
2023-05-09T04:49:24.147Z,53.89
2023-05-09T04:51:52.288Z,54.52
2023-05-09T04:54:22.375Z,54.28
2023-05-09T04:56:50.763Z,53.74
2023-05-09T04:59:19.509Z,53.08
2023-05-09T05:01:52.071Z,52.92
2023-05-09T05:04:22.373Z,52.67
2023-05-09T05:06:51.605Z,52.75
2023-05-09T05:09:21.182Z,52.43
2023-05-09T05:12:01.790Z,51.95
2023-05-09T05:14:36.015Z,51.48
2023-05-09T05:17:04.571Z,51.68
2023-05-09T05:19:34.661Z,51.77
2023-05-09T05:22:02.892Z,51.28
2023-05-09T05:24:31.450Z,51.47
2023-05-09T05:27:00.138Z,51.47
2023-05-09T05:29:28.493Z,51.38
2023-05-09T05:31:58.814Z,51.68
2023-05-09T05:34:28.192Z,50.66
2023-05-09T05:36:58.000Z,50.57
2023-05-09T05:39:26.855Z,50.32
2023-05-09T05:41:56.533Z,49.82
2023-05-09T05:44:30.548Z,50.49
2023-05-09T05:46:58.788Z,49.99
2023-05-09T05:49:28.927Z,49.25
2023-05-09T05:52:00.725Z,48.63
2023-05-09T05:54:32.306Z,49.64
2023-05-09T05:57:00.564Z,49.11
2023-05-09T05:59:30.856Z,48.62
2023-05-09T06:02:00.481Z,49.80
2023-05-09T06:04:29.456Z,49.78
2023-05-09T06:07:00.049Z,48.74
2023-05-09T06:09:28.438Z,48.21
2023-05-09T06:11:57.429Z,47.57
2023-05-09T06:14:26.183Z,47.29
2023-05-09T06:16:54.736Z,46.32
2023-05-09T06:19:23.028Z,46.55
2023-05-09T06:21:52.320Z,46.46
2023-05-09T06:24:34.425Z,45.66
2023-05-09T06:27:03.908Z,45.71
2023-05-09T06:29:31.924Z,45.81
2023-05-09T06:32:00.347Z,46.00
2023-05-09T06:34:29.212Z,45.28
2023-05-09T06:36:57.560Z,44.04
2023-05-09T06:39:28.116Z,44.47
2023-05-09T06:41:59.572Z,44.84
2023-05-09T06:44:30.625Z,44.84
2023-05-09T06:47:07.206Z,44.61
2023-05-09T06:49:35.974Z,44.82
2023-05-09T06:52:05.198Z,44.29
2023-05-09T06:54:37.741Z,44.68
2023-05-09T06:57:07.293Z,44.14
2023-05-09T06:59:35.872Z,43.82
2023-05-09T07:02:04.457Z,43.71
2023-05-09T07:04:35.081Z,44.57
2023-05-09T07:07:03.789Z,43.66
2023-05-09T07:09:32.462Z,43.90
2023-05-09T07:12:03.061Z,43.57
2023-05-09T07:14:31.942Z,43.42
2023-05-09T07:17:21.781Z,43.89
2023-05-09T07:19:52.300Z,44.45
2023-05-09T07:22:22.500Z,44.59
2023-05-09T07:24:52.734Z,43.69
2023-05-09T07:27:22.913Z,44.02
2023-05-09T07:29:53.503Z,43.54
2023-05-09T07:32:22.341Z,43.87
2023-05-09T07:34:52.634Z,43.96
2023-05-09T07:37:21.233Z,42.81
2023-05-09T07:39:49.927Z,43.55
2023-05-09T07:42:18.111Z,42.95
2023-05-09T07:44:48.739Z,42.20
2023-05-09T07:47:16.768Z,42.23
2023-05-09T07:49:46.852Z,42.48
2023-05-09T07:52:14.936Z,43.16
2023-05-09T07:54:43.039Z,44.27
2023-05-09T07:57:11.529Z,43.45
2023-05-09T07:59:42.361Z,42.57
2023-05-09T08:02:12.216Z,43.50
2023-05-09T08:04:41.293Z,44.27
2023-05-09T08:07:11.959Z,44.05
2023-05-09T08:09:40.256Z,43.65
2023-05-09T08:12:10.290Z,43.49
2023-05-09T08:14:38.952Z,43.38
2023-05-09T08:17:07.172Z,42.82
2023-05-09T08:19:36.949Z,42.21
2023-05-09T08:22:07.167Z,42.61
2023-05-09T08:24:41.909Z,42.79
2023-05-09T08:27:10.600Z,41.82
2023-05-09T08:29:41.070Z,41.33
2023-05-09T08:32:10.953Z,41.18
2023-05-09T08:34:41.125Z,40.06
2023-05-09T08:37:09.558Z,39.77
2023-05-09T08:39:38.116Z,40.63
2023-05-09T08:42:10.013Z,40.68
2023-05-09T08:44:38.110Z,40.33
2023-05-09T08:47:06.490Z,40.73
2023-05-09T08:49:37.757Z,40.76
2023-05-09T08:52:07.977Z,40.53
2023-05-09T08:54:36.444Z,39.55
2023-05-09T08:57:04.891Z,39.09
2023-05-09T08:59:35.162Z,40.29
2023-05-09T09:02:07.605Z,40.73
2023-05-09T09:04:36.990Z,40.48
2023-05-09T09:07:09.783Z,39.91
2023-05-09T09:09:39.021Z,38.49
2023-05-09T09:12:09.698Z,38.24
2023-05-09T09:14:40.930Z,37.25
2023-05-09T09:17:12.678Z,37.56
2023-05-09T09:19:42.453Z,37.77
2023-05-09T09:22:15.486Z,37.63
2023-05-09T09:24:46.497Z,38.62
2023-05-09T09:27:17.462Z,37.74
2023-05-09T09:29:46.242Z,38.63
2023-05-09T09:32:15.317Z,38.71
2023-05-09T09:34:51.033Z,39.05
2023-05-09T09:37:27.490Z,37.64
2023-05-09T09:39:56.440Z,37.57
2023-05-09T09:42:24.840Z,37.72
2023-05-09T09:44:57.885Z,38.28
2023-05-09T09:47:32.896Z,37.73
2023-05-09T09:50:11.142Z,36.89
2023-05-09T09:52:43.287Z,36.02
2023-05-09T09:55:16.822Z,37.17
2023-05-09T09:57:48.684Z,36.78
2023-05-09T10:00:18.707Z,36.71
2023-05-09T10:02:52.441Z,37.01
2023-05-09T10:05:22.726Z,37.66
2023-05-09T10:07:55.506Z,36.63
2023-05-09T10:10:24.413Z,35.90
2023-05-09T10:12:56.086Z,36.98
2023-05-09T10:15:25.152Z,37.02
2023-05-09T10:17:56.489Z,37.70
2023-05-09T10:20:27.749Z,36.05
2023-05-09T10:23:00.167Z,35.92
2023-05-09T10:25:30.449Z,36.73
2023-05-09T10:28:01.233Z,35.54
2023-05-09T10:30:34.067Z,35.51
2023-05-09T10:33:06.347Z,34.64
2023-05-09T10:35:37.872Z,34.99
2023-05-09T10:38:12.537Z,34.78
2023-05-09T10:40:42.731Z,35.13
2023-05-09T10:43:13.271Z,34.45
2023-05-09T10:45:44.695Z,34.72
2023-05-09T10:48:13.658Z,34.53
2023-05-09T10:50:42.646Z,34.36
2023-05-09T10:53:16.955Z,34.70
2023-05-09T10:55:54.092Z,34.65
2023-05-09T10:58:26.814Z,34.64
2023-05-09T11:00:57.539Z,34.15
2023-05-09T11:03:27.206Z,34.83
2023-05-09T11:05:56.974Z,33.98
2023-05-09T11:08:28.991Z,33.73
2023-05-09T11:11:01.275Z,34.40
2023-05-09T11:13:33.370Z,34.58
2023-05-09T11:16:19.742Z,33.92
2023-05-09T11:18:55.122Z,34.91
2023-05-09T11:21:23.513Z,35.24
2023-05-09T11:23:55.283Z,35.25
2023-05-09T11:26:24.651Z,35.23
2023-05-09T11:28:57.074Z,34.95
2023-05-09T11:31:26.465Z,34.78
2023-05-09T11:34:05.007Z,34.94
2023-05-09T11:36:35.599Z,34.51
2023-05-09T11:39:07.714Z,33.90
2023-05-09T11:41:41.143Z,34.40
2023-05-09T11:44:15.337Z,34.02
2023-05-09T11:46:46.595Z,34.94
2023-05-09T11:49:15.346Z,34.23
2023-05-09T11:51:44.047Z,34.76
2023-05-09T11:54:15.199Z,34.37
2023-05-09T11:56:45.333Z,35.14
2023-05-09T11:59:16.242Z,35.13
2023-05-09T12:01:44.765Z,34.26
2023-05-09T12:04:13.103Z,33.74
2023-05-09T12:06:43.275Z,35.18
2023-05-09T12:09:16.210Z,35.79
2023-05-09T12:11:50.063Z,35.60
2023-05-09T12:14:29.798Z,36.52
2023-05-09T12:16:59.136Z,36.31
2023-05-09T12:19:32.273Z,36.41
2023-05-09T12:22:01.599Z,36.30
2023-05-09T12:24:31.520Z,36.38
2023-05-09T12:27:01.133Z,36.89
2023-05-09T12:29:30.786Z,36.05
2023-05-09T12:32:00.165Z,36.43
2023-05-09T12:34:28.700Z,36.17
2023-05-09T12:37:00.828Z,35.87
2023-05-09T12:39:29.460Z,34.90
2023-05-09T12:42:01.854Z,36.31
2023-05-09T12:44:30.599Z,36.82
2023-05-09T12:47:00.483Z,36.36
2023-05-09T12:49:31.708Z,36.78
2023-05-09T12:52:04.459Z,36.54
2023-05-09T12:54:33.647Z,36.16
2023-05-09T12:57:06.014Z,36.73
2023-05-09T12:59:35.158Z,36.43
2023-05-09T13:02:04.018Z,34.93
2023-05-09T13:04:32.404Z,35.66
2023-05-09T13:07:01.096Z,36.10
2023-05-09T13:09:30.018Z,35.91
2023-05-09T13:11:58.219Z,35.30
2023-05-09T13:14:29.568Z,36.35
2023-05-09T13:16:58.270Z,36.73
2023-05-09T13:19:27.444Z,37.12
2023-05-09T13:21:56.113Z,36.74
2023-05-09T13:24:24.769Z,35.84
2023-05-09T13:26:54.049Z,35.58
2023-05-09T13:29:22.812Z,36.50
2023-05-09T13:31:52.324Z,36.70
2023-05-09T13:34:22.998Z,36.65
2023-05-09T13:36:51.500Z,36.77
2023-05-09T13:39:21.510Z,37.18
2023-05-09T13:41:52.861Z,37.42
2023-05-09T13:44:21.054Z,37.59
2023-05-09T13:46:49.786Z,36.58
2023-05-09T13:49:25.462Z,36.75
2023-05-09T13:51:53.738Z,36.51
2023-05-09T13:54:23.208Z,37.17
2023-05-09T13:56:51.949Z,37.53
2023-05-09T13:59:21.226Z,37.23
2023-05-09T14:01:50.198Z,36.78
2023-05-09T14:04:23.607Z,37.42
2023-05-09T14:06:52.185Z,38.06
2023-05-09T14:09:22.220Z,37.44
2023-05-09T14:11:51.593Z,36.61
2023-05-09T14:14:20.230Z,36.85
2023-05-09T14:16:49.577Z,37.53
2023-05-09T14:19:18.129Z,36.46
2023-05-09T14:21:49.052Z,35.59
2023-05-09T14:24:17.238Z,36.25
2023-05-09T14:26:45.376Z,36.43
2023-05-09T14:29:13.720Z,37.33
2023-05-09T14:31:43.150Z,37.78
2023-05-09T14:34:13.640Z,37.84
2023-05-09T14:36:48.835Z,37.71
2023-05-09T14:39:20.543Z,37.22
2023-05-09T14:41:50.105Z,36.40
2023-05-09T14:44:18.273Z,36.55
2023-05-09T14:46:47.150Z,36.63
2023-05-09T14:49:15.568Z,37.15
2023-05-09T14:51:44.732Z,37.11
2023-05-09T14:54:12.848Z,37.03
2023-05-09T14:56:42.833Z,37.11
2023-05-09T14:59:11.666Z,36.61
2023-05-09T15:01:40.087Z,36.69
2023-05-09T15:04:09.859Z,36.81
2023-05-09T15:06:38.267Z,37.51
2023-05-09T15:09:06.710Z,37.08
2023-05-09T15:11:46.662Z,37.07
2023-05-09T15:14:17.388Z,37.37
2023-05-09T15:16:46.012Z,37.80
2023-05-09T15:19:14.663Z,37.60
2023-05-09T15:21:43.357Z,37.85
2023-05-09T15:24:12.069Z,38.13
2023-05-09T15:26:40.220Z,38.15
2023-05-09T15:32:52.062Z,38.29
2023-05-09T15:35:52.254Z,37.80
2023-05-09T15:38:23.421Z,37.94
2023-05-09T15:41:48.193Z,38.15
2023-05-09T15:45:15.763Z,38.21
2023-05-09T15:47:35.653Z,38.00
2023-05-09T15:50:09.632Z,38.16
2023-05-09T15:52:42.346Z,38.75
2023-05-09T15:56:03.682Z,38.79
2023-05-09T15:58:32.114Z,37.97
2023-05-09T16:01:05.772Z,38.33
2023-05-09T16:07:36.286Z,38.55
2023-05-09T16:10:05.306Z,38.19
2023-05-09T16:12:33.670Z,38.22
2023-05-09T16:15:02.294Z,38.58
2023-05-09T16:17:32.778Z,38.68
2023-05-09T16:20:02.365Z,38.74
2023-05-09T16:22:30.981Z,39.21
2023-05-09T16:25:00.226Z,39.14
2023-05-09T16:27:30.964Z,39.12
2023-05-09T16:30:02.422Z,39.42
2023-05-09T16:32:32.278Z,39.35
2023-05-09T16:35:00.797Z,39.41
2023-05-09T16:37:31.381Z,39.80
2023-05-09T16:40:04.472Z,39.64
2023-05-09T16:42:33.056Z,39.84
2023-05-09T16:45:01.867Z,39.68
2023-05-09T16:47:29.946Z,39.73
2023-05-09T16:49:59.707Z,40.06
2023-05-09T16:52:28.326Z,40.57
2023-05-09T16:54:59.476Z,40.58
2023-05-09T16:57:28.412Z,40.82
2023-05-09T16:59:57.030Z,41.03
2023-05-09T17:02:26.477Z,40.74
2023-05-09T17:04:55.102Z,41.09
2023-05-09T17:07:24.592Z,40.81
2023-05-09T17:09:52.667Z,40.79
2023-05-09T17:12:23.435Z,41.35
2023-05-09T17:14:51.850Z,41.66
2023-05-09T17:17:22.293Z,41.98
2023-05-09T17:19:51.392Z,41.70
2023-05-09T17:22:21.281Z,42.06
2023-05-09T17:24:51.044Z,42.33
2023-05-09T17:27:19.603Z,42.26
2023-05-09T17:29:50.198Z,42.35
2023-05-09T17:32:18.809Z,42.48
2023-05-09T17:34:47.561Z,42.89
2023-05-09T17:37:17.245Z,42.77
2023-05-09T17:39:45.793Z,42.91
2023-05-09T17:42:15.533Z,43.11
2023-05-09T17:44:44.377Z,43.52
2023-05-09T17:47:14.565Z,43.72
2023-05-09T17:49:44.380Z,43.95
2023-05-09T17:52:13.246Z,43.91
2023-05-09T17:54:43.726Z,44.29
2023-05-09T17:57:13.330Z,44.18
2023-05-09T17:59:43.024Z,44.60
2023-05-09T18:02:11.813Z,44.73
2023-05-09T18:04:40.777Z,44.80
2023-05-09T18:07:10.328Z,44.95
2023-05-09T18:09:39.813Z,45.13
2023-05-09T18:12:09.876Z,45.20
2023-05-09T18:14:39.618Z,45.42
2023-05-09T18:17:09.910Z,45.69
2023-05-09T18:19:41.129Z,45.85
2023-05-09T18:22:09.336Z,46.05
2023-05-09T18:24:37.900Z,46.25
2023-05-09T18:27:05.974Z,46.35
2023-05-09T18:29:35.471Z,46.54
2023-05-09T18:32:03.939Z,46.78
2023-05-09T18:34:36.336Z,46.80
2023-05-09T18:37:06.454Z,46.98
2023-05-09T18:39:34.805Z,47.05
2023-05-09T18:42:03.258Z,47.25
2023-05-09T18:44:31.328Z,47.30
2023-05-09T18:47:00.041Z,47.47
2023-05-09T18:49:28.454Z,47.77
2023-05-09T18:52:00.267Z,47.97
2023-05-09T18:54:28.983Z,48.02
2023-05-09T18:56:59.803Z,48.13
2023-05-09T18:59:28.188Z,48.10
2023-05-09T19:02:01.456Z,48.33
2023-05-09T19:04:30.253Z,48.47
2023-05-09T19:07:00.930Z,48.58
2023-05-09T19:09:30.841Z,48.70
2023-05-09T19:12:04.679Z,48.80
2023-05-09T19:14:33.276Z,49.11
2023-05-09T19:17:01.992Z,49.20
2023-05-09T19:19:30.186Z,49.43
2023-05-09T19:22:01.981Z,49.68
2023-05-09T19:24:33.092Z,49.66
2023-05-09T19:27:01.936Z,49.56
2023-05-09T19:29:30.268Z,49.57
2023-05-09T19:31:58.869Z,49.49
2023-05-09T19:34:27.661Z,49.56
2023-05-09T19:36:57.930Z,49.77
2023-05-09T19:39:29.126Z,49.66
2023-05-09T19:41:59.707Z,49.66
2023-05-09T19:44:28.785Z,49.78
2023-05-09T19:46:58.573Z,49.82
2023-05-09T19:49:27.223Z,49.79
2023-05-09T19:51:55.644Z,49.79
2023-05-09T19:54:28.233Z,49.98
2023-05-09T19:56:58.678Z,49.89
2023-05-09T19:59:27.003Z,50.00
2023-05-09T20:01:55.488Z,49.99
2023-05-09T20:04:24.609Z,50.21
2023-05-09T20:06:53.405Z,50.29
2023-05-09T20:09:21.950Z,50.19
2023-05-09T20:11:50.715Z,50.48
2023-05-09T20:14:20.314Z,50.52
2023-05-09T20:16:50.316Z,50.64
2023-05-09T20:19:18.423Z,50.65
2023-05-09T20:21:47.527Z,50.80
2023-05-09T20:24:16.177Z,50.83
2023-05-09T20:26:44.825Z,50.84
2023-05-09T20:29:13.124Z,50.89
2023-05-09T20:31:43.232Z,51.09
2023-05-09T20:34:16.020Z,50.89
2023-05-09T20:36:44.688Z,51.28
2023-05-09T20:39:13.414Z,51.42
2023-05-09T20:41:41.535Z,51.65
2023-05-09T20:44:09.793Z,51.79
2023-05-09T20:46:38.385Z,52.06
2023-05-09T20:49:08.138Z,52.07
2023-05-09T20:51:36.589Z,52.11
2023-05-09T20:54:05.163Z,52.13
2023-05-09T20:56:35.570Z,52.31
2023-05-09T20:59:04.399Z,52.51
2023-05-09T21:01:36.775Z,52.61
2023-05-09T21:04:05.905Z,52.73
2023-05-09T21:06:37.257Z,52.89
2023-05-09T21:09:08.912Z,53.01
2023-05-09T21:11:38.650Z,53.15
2023-05-09T21:14:06.995Z,53.28
2023-05-09T21:16:35.205Z,53.22
2023-05-09T21:19:05.742Z,53.19
2023-05-09T21:21:35.881Z,53.55
2023-05-09T21:24:09.171Z,53.65
2023-05-09T21:26:38.665Z,53.97
2023-05-09T21:29:07.657Z,54.09
2023-05-09T21:31:37.017Z,54.16
2023-05-09T21:34:17.250Z,54.21
2023-05-09T21:36:46.918Z,54.45
2023-05-09T21:39:15.574Z,54.70
2023-05-09T21:41:44.595Z,54.83
2023-05-09T21:44:13.872Z,54.89
2023-05-09T21:46:46.127Z,55.10
2023-05-09T21:49:18.662Z,55.27
2023-05-09T21:51:48.490Z,55.40
2023-05-09T21:54:18.293Z,55.52
2023-05-09T21:56:51.438Z,55.74
2023-05-09T21:59:20.879Z,55.90
2023-05-09T22:01:48.936Z,56.01
2023-05-09T22:04:17.240Z,56.10
2023-05-09T22:06:46.004Z,56.32
2023-05-09T22:09:18.218Z,56.37
2023-05-09T22:11:47.566Z,56.62
2023-05-09T22:14:20.277Z,56.65
2023-05-09T22:16:48.433Z,56.74
2023-05-09T22:19:22.305Z,56.82
2023-05-09T22:21:53.434Z,56.91
2023-05-09T22:24:25.943Z,56.97
2023-05-09T22:26:54.135Z,57.12
2023-05-09T22:29:22.559Z,57.29
2023-05-09T22:31:50.756Z,57.32
2023-05-09T22:34:18.770Z,57.49
2023-05-09T22:36:47.301Z,57.81
2023-05-09T22:39:15.859Z,58.00
2023-05-09T22:41:46.305Z,58.14
2023-05-09T22:44:15.652Z,58.43
2023-05-09T22:46:43.820Z,58.37
2023-05-09T22:49:12.117Z,58.49
2023-05-09T22:51:40.603Z,58.65
2023-05-09T22:54:09.124Z,58.70
2023-05-09T22:56:37.925Z,58.85
2023-05-09T22:59:07.724Z,59.07
2023-05-09T23:01:36.071Z,59.25
2023-05-09T23:04:08.424Z,59.38
2023-05-09T23:06:36.782Z,59.54
2023-05-09T23:09:07.029Z,59.71
2023-05-09T23:11:35.534Z,59.72
2023-05-09T23:14:04.880Z,59.84
2023-05-09T23:16:36.852Z,59.94
2023-05-09T23:19:05.195Z,60.05
2023-05-09T23:21:33.976Z,60.01
2023-05-09T23:24:02.136Z,60.21
2023-05-09T23:26:30.338Z,60.35
2023-05-09T23:28:58.646Z,60.38
2023-05-09T23:31:27.329Z,60.46
2023-05-09T23:33:56.966Z,60.80
2023-05-09T23:36:27.435Z,60.73
2023-05-09T23:38:57.746Z,60.99
2023-05-09T23:41:27.611Z,61.09
2023-05-09T23:43:57.960Z,61.23
2023-05-09T23:46:26.255Z,61.40
2023-05-09T23:48:57.223Z,61.50
2023-05-09T23:51:25.734Z,61.53
2023-05-09T23:53:54.075Z,61.67
2023-05-09T23:56:22.841Z,61.82
2023-05-09T23:58:51.118Z,62.05
